createdAt,value
2023-02-17T00:03:28.910Z,0
2023-02-17T00:09:11.627Z,0
2023-02-17T00:14:51.336Z,0
2023-02-17T00:20:11.654Z,0
2023-02-17T00:25:34.873Z,0
2023-02-17T00:31:21.354Z,0
2023-02-17T00:36:41.967Z,0
2023-02-17T00:42:24.944Z,0
2023-02-17T00:48:04.746Z,0
2023-02-17T00:53:33.068Z,0
2023-02-17T00:59:17.518Z,0
2023-02-17T01:04:23.675Z,0
2023-02-17T01:10:24.940Z,0
2023-02-17T01:15:33.227Z,0
2023-02-17T01:21:30.160Z,0
2023-02-17T01:26:37.913Z,0
2023-02-17T01:32:11.951Z,0
2023-02-17T01:38:10.641Z,0
2023-02-17T01:43:34.425Z,0
2023-02-17T01:49:11.901Z,0
2023-02-17T01:54:36.264Z,2.4
2023-02-17T02:00:18.876Z,0
2023-02-17T02:05:47.573Z,0
2023-02-17T02:11:22.452Z,0
2023-02-17T02:16:58.891Z,0
2023-02-17T02:22:15.775Z,0
2023-02-17T02:27:49.938Z,0
2023-02-17T02:39:12.443Z,0
2023-02-17T02:44:39.971Z,0
2023-02-17T02:49:55.048Z,0
2023-02-17T02:55:41.223Z,0
2023-02-17T03:01:05.667Z,0
2023-02-17T03:06:37.080Z,0
2023-02-17T03:12:29.745Z,0
2023-02-17T03:18:07.901Z,0
2023-02-17T03:23:36.204Z,0
2023-02-17T03:28:53.985Z,0
2023-02-17T03:34:24.455Z,0
2023-02-17T03:40:07.568Z,0
2023-02-17T03:45:34.827Z,0
2023-02-17T03:51:06.658Z,0
2023-02-17T03:56:38.189Z,0
2023-02-17T04:02:19.120Z,0
2023-02-17T04:08:09.091Z,0
2023-02-17T04:13:40.537Z,0
2023-02-17T04:19:04.596Z,0
2023-02-17T04:24:42.387Z,0
2023-02-17T04:30:06.823Z,0
2023-02-17T04:35:55.841Z,0
2023-02-17T04:41:00.861Z,0
2023-02-17T04:47:00.506Z,0
2023-02-17T04:52:13.011Z,0
2023-02-17T04:57:43.237Z,0
2023-02-17T05:03:14.086Z,0
2023-02-17T05:09:07.737Z,0
2023-02-17T05:14:33.841Z,0
2023-02-17T05:20:17.935Z,0
2023-02-17T05:25:46.384Z,0
2023-02-17T05:31:13.711Z,0
2023-02-17T05:37:00.626Z,0
2023-02-17T05:42:05.321Z,4.8
2023-02-17T05:48:00.776Z,4.8
2023-02-17T05:53:13.383Z,0
2023-02-17T05:58:45.539Z,0
2023-02-17T06:04:43.163Z,2.4
2023-02-17T06:10:11.689Z,9.6
2023-02-17T06:15:39.554Z,11.9
2023-02-17T06:21:07.034Z,7.2
2023-02-17T06:26:37.282Z,0
2023-02-17T06:32:14.702Z,0
2023-02-17T06:37:59.889Z,0
2023-02-17T06:43:18.145Z,4.8
2023-02-17T06:49:00.772Z,0
2023-02-17T06:54:24.990Z,2.4
2023-02-17T07:00:12.914Z,4.8
2023-02-17T07:05:32.465Z,2.4
2023-02-17T07:11:22.615Z,4.8
2023-02-17T07:16:50.664Z,0
2023-02-17T07:22:33.655Z,2.4
2023-02-17T07:28:12.010Z,0
2023-02-17T07:33:35.927Z,3.6
2023-02-17T07:38:58.572Z,0
2023-02-17T07:44:48.024Z,0
2023-02-17T07:50:17.099Z,0
2023-02-17T07:55:50.313Z,0
2023-02-17T08:01:31.082Z,0
2023-02-17T08:07:05.498Z,0
2023-02-17T08:12:27.212Z,0
2023-02-17T08:18:02.849Z,3.6
2023-02-17T08:23:24.177Z,0
2023-02-17T08:28:59.480Z,0
2023-02-17T08:34:50.787Z,0
2023-02-17T08:40:28.465Z,0
2023-02-17T08:45:55.986Z,0
2023-02-17T08:51:31.373Z,0
2023-02-17T08:57:07.763Z,0
2023-02-17T09:02:42.110Z,0
2023-02-17T09:08:11.529Z,0
2023-02-17T09:13:37.788Z,5.9
2023-02-17T09:19:17.303Z,5.9
2023-02-17T09:24:45.955Z,7.2
2023-02-17T09:30:26.106Z,7.2
2023-02-17T09:35:58.262Z,7.2
2023-02-17T09:41:24.805Z,5.9
2023-02-17T09:47:09.277Z,8.4
2023-02-17T09:52:44.961Z,13.2
2023-02-17T09:58:35.444Z,11.9
2023-02-17T10:03:48.662Z,7.2
2023-02-17T10:09:33.933Z,5.9
2023-02-17T10:15:13.299Z,10.7
2023-02-17T10:20:46.649Z,5.9
2023-02-17T10:26:05.444Z,7.2
2023-02-17T10:31:46.276Z,7.2
2023-02-17T10:37:26.942Z,8.4
2023-02-17T10:42:46.534Z,9.6
2023-02-17T10:48:46.777Z,10.7
2023-02-17T10:54:02.751Z,3.6
2023-02-17T10:59:54.169Z,7.2
2023-02-17T11:05:24.431Z,8.4
2023-02-17T11:10:38.090Z,4.8
2023-02-17T11:16:36.395Z,8.4
2023-02-17T11:22:01.281Z,5.9
2023-02-17T11:27:32.469Z,7.2
2023-02-17T11:33:20.742Z,4.8
2023-02-17T11:38:36.415Z,7.2
2023-02-17T11:44:27.279Z,9.6
2023-02-17T11:49:49.475Z,5.9
2023-02-17T11:55:24.122Z,5.9
2023-02-17T12:01:16.135Z,5.9
2023-02-17T12:06:44.090Z,10.7
2023-02-17T12:12:32.444Z,10.7
2023-02-17T12:18:06.754Z,5.9
2023-02-17T12:23:44.397Z,4.8
2023-02-17T12:29:17.674Z,4.8
2023-02-17T12:34:28.602Z,4.8
2023-02-17T12:40:21.241Z,5.9
2023-02-17T12:45:56.101Z,5.9
2023-02-17T12:51:36.541Z,4.8
2023-02-17T12:57:00.805Z,7.2
2023-02-17T13:02:34.410Z,7.2
2023-02-17T13:08:27.094Z,7.2
2023-02-17T13:13:41.929Z,5.9
2023-02-17T13:19:38.067Z,4.8
2023-02-17T13:24:59.280Z,4.8
2023-02-17T13:30:33.279Z,5.9
2023-02-17T13:36:04.390Z,4.8
2023-02-17T13:41:59.172Z,5.9
2023-02-17T13:47:08.483Z,5.9
2023-02-17T13:52:58.894Z,4.8
2023-02-17T13:58:16.812Z,5.9
2023-02-17T14:03:51.720Z,4.8
2023-02-17T14:09:51.720Z,5.9
2023-02-17T14:15:26.014Z,5.9
2023-02-17T14:21:03.545Z,5.9
2023-02-17T14:26:24.917Z,5.9
2023-02-17T14:32:05.074Z,4.8
2023-02-17T14:37:46.337Z,4.8
2023-02-17T14:43:21.043Z,4.8
2023-02-17T14:48:44.015Z,7.2
2023-02-17T14:54:10.963Z,4.8
2023-02-17T14:59:57.128Z,4.8
2023-02-17T15:05:18.019Z,4.8
2023-02-17T15:10:53.930Z,3.6
2023-02-17T15:16:33.948Z,3.6
2023-02-17T15:22:25.617Z,3.6
2023-02-17T15:27:46.884Z,4.8
2023-02-17T15:33:13.138Z,3.6
2023-02-17T15:39:06.238Z,3.6
2023-02-17T15:44:44.233Z,0
2023-02-17T15:50:01.594Z,0
2023-02-17T15:55:47.222Z,0
2023-02-17T16:01:25.010Z,3.6
2023-02-17T16:06:45.576Z,0
2023-02-17T16:12:16.037Z,3.6
2023-02-17T16:18:03.527Z,3.6
2023-02-17T16:23:38.395Z,0
2023-02-17T16:29:08.798Z,0
2023-02-17T16:34:49.903Z,0
2023-02-17T16:40:17.777Z,0
2023-02-17T16:45:52.424Z,0
2023-02-17T16:51:34.201Z,0
2023-02-17T16:56:53.370Z,0
2023-02-17T17:02:39.668Z,0
2023-02-17T17:08:00.566Z,0
2023-02-17T17:13:36.218Z,0
2023-02-17T17:19:26.569Z,0
2023-02-17T17:24:47.478Z,0
2023-02-17T17:30:32.322Z,0
2023-02-17T17:35:54.116Z,0
2023-02-17T17:41:28.588Z,0
2023-02-17T17:47:21.235Z,0
2023-02-17T17:52:49.917Z,0
2023-02-17T17:58:13.922Z,0
2023-02-17T18:03:43.183Z,0
2023-02-17T18:09:15.099Z,0
2023-02-17T18:14:50.164Z,0
2023-02-17T18:20:30.354Z,0
2023-02-17T18:25:51.660Z,0
2023-02-17T18:31:35.508Z,0
2023-02-17T18:37:11.982Z,0
2023-02-17T18:42:49.390Z,0
2023-02-17T18:48:22.292Z,0
2023-02-17T18:53:47.347Z,0
2023-02-17T18:59:22.638Z,0
2023-02-17T19:04:53.435Z,0
2023-02-17T19:10:16.982Z,0
2023-02-17T19:15:48.409Z,0
2023-02-17T19:21:29.386Z,0
2023-02-17T19:27:17.845Z,0
2023-02-17T19:32:30.968Z,0
2023-02-17T19:38:09.096Z,0
2023-02-17T19:43:34.535Z,0
2023-02-17T19:49:29.254Z,0
2023-02-17T19:54:41.041Z,0
2023-02-17T20:00:23.977Z,0
2023-02-17T20:06:10.585Z,0
2023-02-17T20:11:18.993Z,0
2023-02-17T20:17:08.206Z,0
2023-02-17T20:22:42.919Z,0
2023-02-17T20:28:06.291Z,0
2023-02-17T20:33:45.980Z,0
2023-02-17T20:39:16.866Z,0
2023-02-17T20:44:47.865Z,0
2023-02-17T20:50:20.980Z,0
2023-02-17T20:55:45.164Z,0
2023-02-17T21:01:42.149Z,0
2023-02-17T21:06:52.652Z,0
2023-02-17T21:12:42.209Z,0
2023-02-17T21:18:10.588Z,0
2023-02-17T21:23:50.985Z,0
2023-02-17T21:29:20.828Z,0
2023-02-17T21:34:40.457Z,0
2023-02-17T21:40:38.241Z,0
2023-02-17T21:45:57.780Z,0
2023-02-17T21:51:38.607Z,0
2023-02-17T21:57:14.900Z,0
2023-02-17T22:02:51.345Z,0
2023-02-17T22:08:05.588Z,0
2023-02-17T22:13:54.859Z,0
2023-02-17T22:19:10.049Z,0
2023-02-17T22:24:52.884Z,0
2023-02-17T22:30:19.641Z,0
2023-02-17T22:35:44.368Z,0
2023-02-17T22:41:38.517Z,0
2023-02-17T22:46:59.873Z,0
2023-02-17T22:52:21.910Z,0
2023-02-17T22:58:08.129Z,0
2023-02-17T23:03:42.092Z,0
2023-02-17T23:09:04.190Z,0
2023-02-17T23:14:39.661Z,0
2023-02-17T23:20:13.455Z,0
2023-02-17T23:25:53.137Z,0
2023-02-17T23:31:24.292Z,0
2023-02-17T23:36:52.390Z,0
2023-02-17T23:42:21.294Z,0
2023-02-17T23:48:04.373Z,0
2023-02-17T23:53:40.169Z,0
2023-02-17T23:59:10.088Z,0
